Time;durP1;ratioP1;P1;durP2;ratioP2;P2;SDS_P1;SDS_P2;PMS_P1;PMS_P2;Temp;Humidity;BMP_temperature;BMP_pressure;BME280_temperature;BME280_humidity;BME280_pressure;Samples;Min_cycle;Max_cycle;Signal;HPM_P1;HPM_P2
2023/12/25 00:00:43;;;;;;;13.30;5.28;;;;;;;0.03;76.03;99002.87;1698017;84;21039;-65
2023/12/25 00:03:12;;;;;;;13.58;5.53;;;;;;;0.01;76.01;98999.50;1729008;82;21051;-65
2023/12/25 00:05:41;;;;;;;10.03;4.80;;;;;;;-0.03;75.93;99004.84;1743918;82;21067;-64
2023/12/25 00:08:09;;;;;;;11.15;4.85;;;;;;;-0.07;76.15;99003.48;1743960;82;21490;-65
2023/12/25 00:10:38;;;;;;;9.85;4.78;;;;;;;-0.09;76.25;99003.66;1744193;82;21068;-65
2023/12/25 00:13:06;;;;;;;12.25;5.20;;;;;;;-0.10;76.29;99005.16;1743969;81;21039;-66
2023/12/25 00:15:35;;;;;;;11.65;5.08;;;;;;;-0.14;76.27;99005.15;1744236;82;21071;-64
2023/12/25 00:18:05;;;;;;;11.18;5.25;;;;;;;-0.14;76.49;99003.80;1744245;82;21055;-64
2023/12/25 00:20:33;;;;;;;12.93;5.80;;;;;;;-0.15;76.61;98990.84;1744109;82;21031;-63
2023/12/25 00:23:02;;;;;;;11.60;4.85;;;;;;;-0.18;76.68;98973.68;1743970;81;21020;-65
2023/12/25 00:25:31;;;;;;;9.55;4.83;;;;;;;-0.18;76.85;98973.68;1743969;81;21032;-64
2023/12/25 00:27:59;;;;;;;9.95;4.62;;;;;;;-0.20;76.81;98962.23;1743865;81;21470;-64
2023/12/25 00:30:28;;;;;;;9.70;4.83;;;;;;;-0.19;77.02;98955.01;1743875;82;20999;-64
2023/12/25 00:32:57;;;;;;;10.58;4.65;;;;;;;-0.16;77.21;98946.60;1743981;82;21456;-65
2023/12/25 00:35:25;;;;;;;10.63;4.95;;;;;;;-0.16;77.13;98942.56;1744058;82;21012;-64
2023/12/25 00:37:56;;;;;;;12.23;4.55;;;;;;;-0.16;77.20;98934.49;1743995;81;21047;-65
2023/12/25 00:40:24;;;;;;;7.78;4.45;;;;;;;-0.14;77.22;98928.44;1743964;82;21071;-63
2023/12/25 00:42:53;;;;;;;10.28;4.90;;;;;;;-0.18;77.10;98930.62;1744109;82;21032;-64
2023/12/25 00:45:22;;;;;;;9.93;4.70;;;;;;;-0.20;77.08;98931.79;1744055;81;21064;-63
2023/12/25 00:47:50;;;;;;;12.30;5.20;;;;;;;-0.23;77.21;98925.39;1743934;81;21055;-65
2023/12/25 00:50:20;;;;;;;11.48;4.92;;;;;;;-0.26;77.27;98909.58;1743908;82;21048;-64
2023/12/25 00:52:48;;;;;;;13.72;5.40;;;;;;;-0.29;77.40;98904.02;1744015;82;21115;-63
2023/12/25 00:55:17;;;;;;;12.43;5.33;;;;;;;-0.33;77.50;98895.44;1743916;81;21052;-63
2023/12/25 00:57:45;;;;;;;12.95;5.00;;;;;;;-0.35;77.65;98898.80;1744019;82;21056;-65
2023/12/25 01:00:14;;;;;;;10.15;5.20;;;;;;;-0.36;77.87;98890.39;1725551;82;21039;-65
2023/12/25 01:02:43;;;;;;;11.83;4.50;;;;;;;-0.34;77.97;98881.65;1716093;81;21060;-65
2023/12/25 01:05:11;;;;;;;8.53;4.42;;;;;;;-0.34;77.91;98877.61;1705920;83;21028;-63
2023/12/25 01:07:40;;;;;;;10.63;4.87;;;;;;;-0.34;78.04;98875.42;1706022;84;21545;-63
2023/12/25 01:10:09;;;;;;;9.90;4.60;;;;;;;-0.33;78.14;98869.03;1706028;84;21044;-64
2023/12/25 01:12:38;;;;;;;8.35;4.05;;;;;;;-0.36;78.08;98854.57;1706211;83;21518;-65
2023/12/25 01:15:09;;;;;;;9.08;4.08;;;;;;;-0.39;78.20;98849.02;1706353;84;21033;-64
2023/12/25 01:17:38;;;;;;;9.10;4.55;;;;;;;-0.40;78.31;98845.99;1706190;84;21032;-65
2023/12/25 01:20:08;;;;;;;10.40;4.60;;;;;;;-0.39;78.46;98842.80;1705988;84;21534;-65
2023/12/25 01:22:37;;;;;;;8.40;3.98;;;;;;;-0.38;78.56;98847.17;1706092;83;21171;-65
2023/12/25 01:25:07;;;;;;;9.45;3.80;;;;;;;-0.36;78.64;98843.30;1706090;83;21041;-63
2023/12/25 01:27:39;;;;;;;9.15;3.90;;;;;;;-0.35;78.78;98844.14;1706301;83;21080;-65
2023/12/25 01:30:09;;;;;;;9.75;4.33;;;;;;;-0.39;78.93;98838.25;1706235;83;21063;-65
2023/12/25 01:32:38;;;;;;;9.33;3.90;;;;;;;-0.38;79.17;98833.72;1705963;84;21179;-64
2023/12/25 01:35:08;;;;;;;8.00;3.90;;;;;;;-0.39;79.40;98829.34;1705910;83;21091;-62
2023/12/25 01:37:37;;;;;;;6.97;3.40;;;;;;;-0.38;79.60;98827.83;1706179;84;21449;-65
2023/12/25 01:40:08;;;;;;;9.15;3.75;;;;;;;-0.33;79.83;98825.98;1706154;83;21037;-64
2023/12/25 01:42:36;;;;;;;10.50;4.15;;;;;;;-0.32;79.98;98824.47;1705972;83;21163;-65
2023/12/25 01:45:06;;;;;;;8.35;4.12;;;;;;;-0.32;80.25;98811.02;1698030;84;21100;-66
2023/12/25 01:47:35;;;;;;;8.50;4.05;;;;;;;-0.32;80.84;98811.02;1706137;83;21504;-65
2023/12/25 01:50:05;;;;;;;10.35;4.55;;;;;;;-0.34;81.22;98812.20;1697936;84;21040;-65
2023/12/25 01:52:35;;;;;;;8.58;3.92;;;;;;;-0.34;81.78;98804.97;1706204;83;21155;-66
2023/12/25 01:55:05;;;;;;;7.87;3.90;;;;;;;-0.36;82.29;98800.25;1705925;83;21028;-69
2023/12/25 01:57:34;;;;;;;8.30;3.87;;;;;;;-0.30;82.76;98807.32;1706008;83;21510;-64
2023/12/25 02:00:04;;;;;;;9.58;4.03;;;;;;;-0.27;83.10;98798.91;1675284;84;21028;-64
2023/12/25 02:02:35;;;;;;;8.40;3.92;;;;;;;-0.25;83.44;98778.89;1705881;82;21089;-65
2023/12/25 02:05:05;;;;;;;8.73;3.87;;;;;;;-0.24;83.96;98779.73;1706240;83;21044;-69
2023/12/25 02:07:34;;;;;;;10.28;4.12;;;;;;;-0.24;84.46;98767.63;1706180;83;20992;-64
2023/12/25 02:10:03;;;;;;;8.10;4.10;;;;;;;-0.23;84.96;98766.63;1706238;84;21028;-63
2023/12/25 02:12:32;;;;;;;8.88;4.25;;;;;;;-0.24;85.49;98760.39;1706025;83;21140;-65
2023/12/25 02:15:04;;;;;;;8.40;4.50;;;;;;;-0.20;85.92;98766.28;1705984;83;21055;-65
2023/12/25 02:17:33;;;;;;;10.00;4.33;;;;;;;-0.18;86.18;98766.95;1706036;83;21484;-64
2023/12/25 02:20:02;;;;;;;9.93;4.30;;;;;;;-0.18;86.62;98748.11;1706002;83;21095;-64
2023/12/25 02:22:32;;;;;;;9.70;4.17;;;;;;;-0.19;86.98;98751.31;1705976;84;21030;-66
2023/12/25 02:25:05;;;;;;;8.83;5.08;;;;;;;-0.23;87.37;98737.86;1706176;83;21080;-63
2023/12/25 02:27:34;;;;;;;9.55;5.00;;;;;;;-0.23;87.88;98732.98;1706358;84;21044;-65
2023/12/25 02:30:05;;;;;;;10.08;4.67;;;;;;;-0.22;88.36;98731.47;1706089;83;21108;-65
2023/12/25 02:32:34;;;;;;;9.60;5.08;;;;;;;-0.20;88.68;98708.42;1706172;83;21017;-65
2023/12/25 02:35:04;;;;;;;12.65;4.87;;;;;;;-0.19;89.06;98707.41;1706217;84;21052;-63
2023/12/25 02:37:32;;;;;;;9.90;4.90;;;;;;;-0.15;89.34;98703.37;1705979;84;21032;-64
2023/12/25 02:40:01;;;;;;;9.73;4.58;;;;;;;-0.14;89.49;98697.81;1705909;84;21048;-65
2023/12/25 02:42:30;;;;;;;7.62;4.55;;;;;;;-0.12;89.78;98693.60;1705956;83;21330;-65
2023/12/25 02:44:59;;;;;;;9.58;4.90;;;;;;;-0.11;90.06;98685.86;1705981;83;21087;-65
2023/12/25 02:47:27;;;;;;;9.60;5.10;;;;;;;-0.08;90.29;98686.86;1697904;84;21075;-64
2023/12/25 02:49:56;;;;;;;10.93;4.97;;;;;;;-0.08;90.46;98692.25;1697853;84;21004;-65
2023/12/25 02:52:24;;;;;;;9.63;4.60;;;;;;;-0.10;90.66;98672.23;1706187;83;21032;-66
2023/12/25 02:54:53;;;;;;;7.65;4.08;;;;;;;-0.09;90.95;98681.98;1706072;84;21021;-65
2023/12/25 02:57:22;;;;;;;8.83;4.65;;;;;;;-0.07;91.31;98679.12;1706013;83;21047;-66
2023/12/25 02:59:50;;;;;;;8.20;4.50;;;;;;;-0.09;91.44;98665.84;1706081;83;21076;-66
2023/12/25 03:02:19;;;;;;;8.75;5.12;;;;;;;-0.08;91.72;98668.02;1706099;83;21154;-65
2023/12/25 03:04:48;;;;;;;9.85;4.67;;;;;;;-0.07;91.98;98670.55;1738745;82;21114;-63
2023/12/25 03:07:16;;;;;;;9.55;4.37;;;;;;;-0.06;92.20;98657.41;1743986;81;21071;-63
2023/12/25 03:09:44;;;;;;;8.78;4.37;;;;;;;-0.05;92.46;98654.22;1743961;82;21514;-64
2023/12/25 03:12:13;;;;;;;11.57;4.92;;;;;;;-0.04;92.68;98647.31;1744198;82;21011;-65
2023/12/25 03:14:41;;;;;;;10.20;4.75;;;;;;;-0.02;92.90;98647.98;1744020;82;21078;-64
2023/12/25 03:17:10;;;;;;;8.85;4.10;;;;;;;-0.02;93.07;98643.10;1744041;82;21071;-65
2023/12/25 03:19:39;;;;;;;9.23;4.65;;;;;;;-0.04;93.30;98629.82;1743906;82;21016;-65
2023/12/25 03:22:07;;;;;;;9.73;4.65;;;;;;;-0.04;93.49;98615.52;1744048;81;21020;-64
2023/12/25 03:24:36;;;;;;;10.68;4.83;;;;;;;-0.03;93.79;98607.27;1743980;81;20995;-64
2023/12/25 03:27:05;;;;;;;8.58;5.17;;;;;;;0.02;94.00;98598.70;1743901;81;21406;-64
2023/12/25 03:29:35;;;;;;;12.88;5.75;;;;;;;0.04;94.22;98591.29;1744224;81;21027;-65
2023/12/25 03:32:04;;;;;;;13.18;5.12;;;;;;;0.05;94.37;98580.85;1744023;81;21026;-64
2023/12/25 03:34:36;;;;;;;10.88;4.92;;;;;;;0.07;94.63;98573.44;1744256;81;21079;-65
2023/12/25 03:37:05;;;;;;;11.85;4.90;;;;;;;0.09;94.79;98561.98;1725028;82;21004;-64
2023/12/25 03:39:34;;;;;;;8.03;4.65;;;;;;;0.09;95.10;98556.60;1743982;82;21067;-63
2023/12/25 03:42:04;;;;;;;8.43;3.90;;;;;;;0.08;95.25;98536.08;1744168;81;21016;-65
2023/12/25 03:44:32;;;;;;;8.35;4.05;;;;;;;0.08;95.49;98533.89;1744040;82;21458;-66
2023/12/25 03:47:03;;;;;;;8.13;4.20;;;;;;;0.08;95.71;98519.92;1743989;82;21060;-65
2023/12/25 03:49:31;;;;;;;8.58;3.92;;;;;;;0.10;95.90;98513.86;1743948;82;21517;-65
2023/12/25 03:52:01;;;;;;;7.25;3.45;;;;;;;0.11;96.03;98515.53;1744192;82;21047;-64
2023/12/25 03:54:30;;;;;;;8.28;4.05;;;;;;;0.11;96.13;98498.03;1744198;82;21074;-65
2023/12/25 03:56:59;;;;;;;5.85;3.42;;;;;;;0.09;96.21;98489.30;1744188;82;21059;-65
2023/12/25 03:59:27;;;;;;;5.60;3.50;;;;;;;0.08;96.33;98476.85;1743856;81;21549;-66
2023/12/25 04:01:56;;;;;;;5.70;3.42;;;;;;;0.10;96.52;98465.91;1743990;82;21031;-65
2023/12/25 04:04:24;;;;;;;6.80;3.90;;;;;;;0.11;96.71;98467.58;1723044;81;21060;-66
2023/12/25 04:06:53;;;;;;;6.20;3.83;;;;;;;0.14;96.84;98464.53;1706104;83;21123;-65
2023/12/25 04:09:22;;;;;;;7.50;3.65;;;;;;;0.16;96.92;98467.38;1706084;83;21017;-64
2023/12/25 04:11:50;;;;;;;8.23;4.03;;;;;;;0.19;97.01;98450.86;1706198;83;21013;-63
2023/12/25 04:14:19;;;;;;;8.10;4.50;;;;;;;0.23;97.10;98469.67;1706072;83;21076;-64
2023/12/25 04:16:48;;;;;;;7.75;3.87;;;;;;;0.27;97.18;98450.80;1706046;83;21492;-64
2023/12/25 04:19:16;;;;;;;8.18;3.87;;;;;;;0.27;97.10;98448.61;1706013;83;21044;-64
2023/12/25 04:21:45;;;;;;;10.25;4.50;;;;;;;0.29;97.16;98450.11;1706173;83;21012;-64
2023/12/25 04:24:14;;;;;;;7.03;4.37;;;;;;;0.29;97.20;98443.38;1706042;83;21061;-66
2023/12/25 04:26:42;;;;;;;7.12;4.22;;;;;;;0.31;97.23;98434.60;1706051;83;21503;-64
2023/12/25 04:29:11;;;;;;;8.23;5.00;;;;;;;0.32;97.29;98434.09;1705985;83;21496;-64
2023/12/25 04:31:39;;;;;;;10.00;4.97;;;;;;;0.33;97.35;98426.85;1706223;84;21641;-63
2023/12/25 04:34:08;;;;;;;8.13;5.00;;;;;;;0.33;97.46;98430.89;1706113;83;21075;-65
2023/12/25 04:36:37;;;;;;;9.15;4.75;;;;;;;0.34;97.60;98414.55;1706037;84;21577;-64
2023/12/25 04:39:05;;;;;;;10.72;5.17;;;;;;;0.36;97.71;98425.98;1705945;83;21060;-64
2023/12/25 04:41:34;;;;;;;10.03;5.22;;;;;;;0.39;97.82;98407.27;1697784;84;21104;-64
2023/12/25 04:44:03;;;;;;;9.10;4.83;;;;;;;0.39;97.89;98418.88;1706056;83;21453;-64
2023/12/25 04:46:32;;;;;;;9.05;4.83;;;;;;;0.43;98.00;98411.27;1706210;84;21064;-65
2023/12/25 04:49:01;;;;;;;9.33;5.30;;;;;;;0.45;98.11;98402.00;1697983;84;21103;-65
2023/12/25 04:51:30;;;;;;;7.97;4.87;;;;;;;0.45;98.20;98404.69;1706235;83;21045;-66
2023/12/25 04:53:58;;;;;;;10.58;5.25;;;;;;;0.48;98.37;98396.75;1706180;84;21504;-65
2023/12/25 04:56:27;;;;;;;10.32;5.30;;;;;;;0.51;98.46;98389.65;1706233;84;21072;-64
2023/12/25 04:58:56;;;;;;;9.78;4.87;;;;;;;0.54;98.58;98375.81;1706202;84;21051;-65
2023/12/25 05:01:26;;;;;;;9.90;4.97;;;;;;;0.57;98.70;98362.81;1697969;84;21512;-65
2023/12/25 05:03:55;;;;;;;7.85;4.65;;;;;;;0.60;98.89;98353.52;1714015;82;21083;-64
2023/12/25 05:06:23;;;;;;;9.23;5.40;;;;;;;0.62;99.01;98344.74;1744324;81;21047;-64
2023/12/25 05:08:52;;;;;;;9.45;5.15;;;;;;;0.68;99.21;98350.77;1744137;82;21004;-65
2023/12/25 05:11:23;;;;;;;10.45;5.37;;;;;;;0.72;99.36;98339.11;1743914;82;21047;-64
2023/12/25 05:13:51;;;;;;;8.78;4.80;;;;;;;0.77;99.47;98338.05;1743944;82;21488;-64
2023/12/25 05:16:20;;;;;;;8.10;4.90;;;;;;;0.79;99.56;98340.88;1743933;82;21015;-65
2023/12/25 05:18:48;;;;;;;9.75;5.40;;;;;;;0.81;99.74;98332.61;1744100;82;21099;-66
2023/12/25 05:21:17;;;;;;;9.38;5.67;;;;;;;0.83;99.87;98325.16;1743874;82;21067;-65
2023/12/25 05:23:46;;;;;;;8.00;4.95;;;;;;;0.84;100.00;98319.59;1743944;82;21028;-65
2023/12/25 05:26:14;;;;;;;9.33;5.15;;;;;;;0.87;100.00;98318.38;1743930;82;21040;-66
2023/12/25 05:28:43;;;;;;;8.95;5.40;;;;;;;0.89;100.00;98309.08;1743932;81;21055;-65
2023/12/25 05:31:13;;;;;;;10.43;5.30;;;;;;;0.92;100.00;98303.31;1743879;82;21051;-65
2023/12/25 05:33:41;;;;;;;9.93;5.28;;;;;;;0.97;100.00;98288.44;1743962;82;21467;-65
2023/12/25 05:36:10;;;;;;;11.63;5.65;;;;;;;1.00;100.00;98288.06;1743967;81;21047;-66
2023/12/25 05:38:40;;;;;;;9.70;5.60;;;;;;;1.03;100.00;98291.21;1743900;81;21058;-66
2023/12/25 05:41:09;;;;;;;12.65;5.42;;;;;;;1.05;100.00;98289.67;1744088;81;21040;-65
2023/12/25 05:43:37;;;;;;;10.88;5.20;;;;;;;1.08;100.00;98282.56;1743942;82;21471;-64
2023/12/25 05:46:06;;;;;;;8.40;4.87;;;;;;;1.11;100.00;98276.27;1744108;82;20984;-64
2023/12/25 05:48:34;;;;;;;9.10;4.80;;;;;;;1.14;100.00;98262.41;1743895;81;21100;-64
2023/12/25 05:51:04;;;;;;;9.88;4.90;;;;;;;1.19;100.00;98267.23;1744092;81;21023;-64
2023/12/25 05:53:33;;;;;;;15.78;5.90;;;;;;;1.21;100.00;98257.09;1744107;82;21066;-65
2023/12/25 05:56:01;;;;;;;11.25;5.00;;;;;;;1.25;100.00;98259.73;1744066;81;21051;-64
2023/12/25 05:58:30;;;;;;;11.57;5.25;;;;;;;1.27;100.00;98248.23;1744115;81;21082;-66
2023/12/25 06:00:59;;;;;;;16.77;4.97;;;;;;;1.30;100.00;98240.27;1744105;81;21083;-64
2023/12/25 06:03:27;;;;;;;8.80;4.95;;;;;;;1.34;100.00;98226.24;1743936;82;21035;-65
2023/12/25 06:05:58;;;;;;;11.78;5.05;;;;;;;1.36;100.00;98241.72;1743875;82;21055;-65
2023/12/25 06:08:27;;;;;;;9.40;5.03;;;;;;;1.40;100.00;98243.00;1743993;81;21056;-64
2023/12/25 06:10:57;;;;;;;13.50;5.60;;;;;;;1.43;100.00;98226.43;1743886;82;21059;-66
2023/12/25 06:13:26;;;;;;;11.90;4.50;;;;;;;1.47;100.00;98213.39;1744008;82;21011;-65
2023/12/25 06:15:54;;;;;;;9.13;4.30;;;;;;;1.51;100.00;98204.72;1743822;82;21027;-66
2023/12/25 06:18:23;;;;;;;10.28;4.45;;;;;;;1.56;100.00;98236.00;1725271;82;21169;-65
2023/12/25 06:20:52;;;;;;;9.25;4.62;;;;;;;1.62;100.00;98228.16;1744116;82;21004;-66
2023/12/25 06:23:23;;;;;;;19.50;6.20;;;;;;;1.68;100.00;98238.17;1743975;82;21011;-66
2023/12/25 06:25:51;;;;;;;11.97;4.85;;;;;;;1.72;100.00;98228.66;1743892;82;21027;-65
2023/12/25 06:28:20;;;;;;;15.63;4.33;;;;;;;1.77;100.00;98215.41;1743904;82;21023;-65
2023/12/25 06:30:51;;;;;;;8.88;4.00;;;;;;;1.81;100.00;98235.08;1744139;81;21070;-64
2023/12/25 06:33:20;;;;;;;13.98;4.00;;;;;;;1.84;100.00;98230.64;1743885;82;21019;-65
2023/12/25 06:35:48;;;;;;;8.88;3.55;;;;;;;1.89;100.00;98231.40;1743866;82;21043;-65
2023/12/25 06:38:17;;;;;;;6.95;3.58;;;;;;;1.93;100.00;98229.97;1743812;81;21505;-64
2023/12/25 06:40:45;;;;;;;11.73;4.42;;;;;;;2.00;100.00;98231.41;1744041;82;21036;-64
2023/12/25 06:43:14;;;;;;;7.50;3.10;;;;;;;2.04;100.00;98243.48;1744052;82;21071;-66
2023/12/25 06:45:43;;;;;;;6.85;3.27;;;;;;;2.07;100.00;98237.17;1725614;82;21027;-64
2023/12/25 06:48:12;;;;;;;7.70;4.22;;;;;;;2.10;100.00;98232.73;1744053;82;21051;-65
2023/12/25 06:50:41;;;;;;;6.92;3.12;;;;;;;2.15;100.00;98230.79;1725501;82;21077;-67
2023/12/25 06:53:10;;;;;;;6.70;3.00;;;;;;;2.18;100.00;98215.02;1744038;82;21070;-68
2023/12/25 06:55:39;;;;;;;8.33;3.33;;;;;;;2.22;100.00;98203.30;1744050;82;21067;-68
2023/12/25 06:58:08;;;;;;;6.53;3.08;;;;;;;2.28;100.00;98213.83;1743824;82;21452;-67
2023/12/25 07:00:36;;;;;;;6.05;3.30;;;;;;;2.31;100.00;98214.78;1743834;82;21051;-67
2023/12/25 07:03:05;;;;;;;7.78;3.58;;;;;;;2.36;100.00;98210.97;1744060;82;21490;-67
2023/12/25 07:05:35;;;;;;;5.92;3.30;;;;;;;2.40;100.00;98211.72;1719983;82;21112;-65
2023/12/25 07:08:06;;;;;;;9.10;3.20;;;;;;;2.43;100.00;98208.63;1705928;84;21028;-67
2023/12/25 07:10:34;;;;;;;6.80;3.30;;;;;;;2.46;100.00;98210.92;1706031;83;21515;-65
2023/12/25 07:13:04;;;;;;;7.05;3.50;;;;;;;2.51;100.00;98210.33;1705864;84;21158;-65
2023/12/25 07:15:33;;;;;;;6.53;3.45;;;;;;;2.56;100.00;98202.45;1705860;84;21048;-66
2023/12/25 07:18:01;;;;;;;11.65;3.83;;;;;;;2.60;100.00;98204.23;1705862;84;21068;-64
2023/12/25 07:20:30;;;;;;;7.70;3.72;;;;;;;2.63;100.00;98207.41;1705881;84;21022;-65
2023/12/25 07:22:59;;;;;;;6.92;3.37;;;;;;;2.67;100.00;98205.13;1706110;83;21087;-65
2023/12/25 07:25:28;;;;;;;9.28;3.15;;;;;;;2.69;100.00;98203.06;1705904;84;21060;-66
2023/12/25 07:27:57;;;;;;;5.95;2.92;;;;;;;2.71;100.00;98199.12;1705910;84;21024;-66
2023/12/25 07:30:25;;;;;;;7.28;3.35;;;;;;;2.76;100.00;98204.75;1706119;84;21080;-67
2023/12/25 07:32:54;;;;;;;7.58;4.33;;;;;;;2.79;100.00;98198.94;1706138;83;21029;-66
2023/12/25 07:35:23;;;;;;;6.03;2.92;;;;;;;2.85;100.00;98172.45;1705874;84;21495;-67
2023/12/25 07:37:52;;;;;;;7.45;3.35;;;;;;;2.91;100.00;98194.30;1705956;83;21083;-65
2023/12/25 07:40:21;;;;;;;6.80;4.20;;;;;;;2.93;100.00;98204.40;1706148;84;21048;-67
2023/12/25 07:42:52;;;;;;;7.78;3.62;;;;;;;2.95;100.00;98186.09;1697772;83;20997;-67
2023/12/25 07:45:20;;;;;;;7.10;3.62;;;;;;;3.00;100.00;98194.44;1698023;84;21072;-66
2023/12/25 07:47:49;;;;;;;7.97;3.80;;;;;;;3.04;100.00;98199.23;1697963;84;21064;-64
2023/12/25 07:50:18;;;;;;;7.22;3.20;;;;;;;3.07;100.00;98196.13;1706197;83;21467;-65
2023/12/25 07:52:46;;;;;;;7.12;3.35;;;;;;;3.09;100.00;98194.56;1706204;84;21068;-67
2023/12/25 07:55:15;;;;;;;7.40;3.42;;;;;;;3.11;100.00;98193.84;1706122;83;21510;-66
2023/12/25 07:57:43;;;;;;;7.17;3.75;;;;;;;3.13;100.00;98191.77;1697879;84;21100;-66
2023/12/25 08:00:15;;;;;;;6.85;3.60;;;;;;;3.13;100.00;98189.06;1706034;84;21064;-67
2023/12/25 08:02:44;;;;;;;4.92;3.42;;;;;;;3.16;100.00;98199.47;1706220;83;21044;-66
2023/12/25 08:05:12;;;;;;;6.97;4.03;;;;;;;3.19;100.00;98209.88;1705954;82;21080;-66
2023/12/25 08:07:41;;;;;;;7.58;4.30;;;;;;;3.19;100.00;98197.71;1698123;84;21060;-67
2023/12/25 08:10:10;;;;;;;25.40;5.78;;;;;;;3.21;100.00;98201.56;1698082;83;21028;-68
2023/12/25 08:12:43;;;;;;;9.25;5.45;;;;;;;3.24;100.00;98191.17;1698083;84;21091;-68
2023/12/25 08:15:13;;;;;;;14.68;7.80;;;;;;;3.27;100.00;98192.66;1706079;83;21199;-68
2023/12/25 08:17:42;;;;;;;8.25;4.78;;;;;;;3.29;100.00;98190.06;1706109;84;21467;-68
2023/12/25 08:20:11;;;;;;;8.55;4.70;;;;;;;3.32;100.00;98165.30;1705957;83;21033;-67
2023/12/25 08:22:40;;;;;;;9.95;5.55;;;;;;;3.36;100.00;98176.02;1706136;84;21028;-67
2023/12/25 08:25:09;;;;;;;8.58;4.08;;;;;;;3.40;100.00;98173.22;1705949;84;21060;-67
2023/12/25 08:27:38;;;;;;;7.35;4.03;;;;;;;3.43;100.00;98176.86;1706002;83;21464;-67
2023/12/25 08:30:08;;;;;;;8.58;5.15;;;;;;;3.47;100.00;98169.99;1706027;84;21032;-67
2023/12/25 08:32:37;;;;;;;14.20;7.97;;;;;;;3.52;100.00;98174.78;1706000;84;21067;-68
2023/12/25 08:35:06;;;;;;;9.45;6.20;;;;;;;3.56;100.00;98180.63;1697941;84;21048;-71
2023/12/25 08:37:35;;;;;;;15.18;8.55;;;;;;;3.58;100.00;98177.19;1706276;83;21009;-69
2023/12/25 08:40:05;;;;;;;16.48;10.95;;;;;;;3.61;100.00;98179.48;1697883;84;21477;-69
2023/12/25 08:42:36;;;;;;;11.80;8.10;;;;;;;3.64;100.00;98184.47;1706240;84;21020;-71
2023/12/25 08:45:07;;;;;;;12.88;7.17;;;;;;;3.67;100.00;98170.52;1706073;84;21068;-70
2023/12/25 08:47:36;;;;;;;15.50;8.73;;;;;;;3.73;100.00;98168.33;1705992;84;21453;-71
2023/12/25 08:50:07;;;;;;;12.55;6.33;;;;;;;3.76;100.00;98175.52;1698128;84;21092;-69
2023/12/25 08:52:36;;;;;;;15.55;9.30;;;;;;;3.81;100.00;98180.30;1706194;83;21441;-69
2023/12/25 08:55:05;;;;;;;19.35;11.90;;;;;;;3.85;100.00;98180.20;1706079;83;21119;-69
2023/12/25 08:57:37;;;;;;;18.77;11.70;;;;;;;3.89;100.00;98176.03;1706256;84;21056;-67
2023/12/25 09:00:08;;;;;;;28.62;15.68;;;;;;;3.92;100.00;98178.87;1698018;84;21076;-70
2023/12/25 09:02:37;;;;;;;31.05;19.32;;;;;;;3.95;100.00;98182.52;1705904;83;21084;-69
2023/12/25 09:05:07;;;;;;;25.40;14.75;;;;;;;3.98;100.00;98195.13;1706291;82;21103;-68
2023/12/25 09:07:36;;;;;;;16.23;9.30;;;;;;;4.02;100.00;98191.47;1706122;83;21067;-67
2023/12/25 09:10:06;;;;;;;20.62;12.40;;;;;;;4.03;100.00;98192.61;1706082;83;21103;-67
2023/12/25 09:12:35;;;;;;;16.10;9.73;;;;;;;4.05;100.00;98182.41;1706027;83;21534;-68
2023/12/25 09:15:05;;;;;;;26.48;16.45;;;;;;;4.08;100.00;98194.70;1706127;83;21461;-73
2023/12/25 09:17:34;;;;;;;33.80;20.02;;;;;;;4.08;100.00;98190.11;1706130;83;21001;-67
2023/12/25 09:20:04;;;;;;;40.45;22.22;;;;;;;4.11;100.00;98189.69;1706397;84;21040;-67
2023/12/25 09:22:33;;;;;;;35.80;19.23;;;;;;;4.13;100.00;98188.13;1705975;83;21477;-67
2023/12/25 09:25:02;;;;;;;33.60;17.95;;;;;;;4.13;100.00;98187.59;1706092;83;21530;-67
2023/12/25 09:27:31;;;;;;;33.67;18.70;;;;;;;4.14;100.00;98188.44;1706152;83;21028;-68
2023/12/25 09:29:59;;;;;;;53.95;24.40;;;;;;;4.17;100.00;98192.59;1706091;83;21499;-65
2023/12/25 09:32:29;;;;;;;47.13;22.75;;;;;;;4.17;100.00;98187.17;1706283;84;21068;-66
2023/12/25 09:34:58;;;;;;;74.37;35.20;;;;;;;4.19;100.00;98193.22;1706099;83;21083;-66
2023/12/25 09:37:27;;;;;;;57.38;27.05;;;;;;;4.21;100.00;98189.78;1697760;83;21064;-66
2023/12/25 09:39:56;;;;;;;38.73;19.57;;;;;;;4.23;100.00;98192.59;1705935;84;21472;-67
2023/12/25 09:42:25;;;;;;;54.60;27.50;;;;;;;4.25;100.00;98183.72;1706118;83;21472;-67
2023/12/25 09:44:54;;;;;;;43.33;23.02;;;;;;;4.27;100.00;98180.80;1705963;84;21047;-68
2023/12/25 09:47:24;;;;;;;39.45;21.37;;;;;;;4.29;100.00;98180.90;1706063;83;21072;-68
2023/12/25 09:49:54;;;;;;;42.65;20.97;;;;;;;4.30;100.00;98183.08;1705898;83;21481;-69
2023/12/25 09:52:24;;;;;;;39.60;22.48;;;;;;;4.34;100.00;98188.39;1706025;84;21480;-68
2023/12/25 09:54:54;;;;;;;68.28;35.30;;;;;;;4.38;100.00;98180.14;1706018;83;21028;-66
2023/12/25 09:57:22;;;;;;;65.90;34.80;;;;;;;4.42;100.00;98174.09;1706165;83;21028;-67
2023/12/25 09:59:52;;;;;;;51.50;27.10;;;;;;;4.45;100.00;98178.25;1705950;83;21092;-66
2023/12/25 10:02:22;;;;;;;47.33;25.50;;;;;;;4.49;100.00;98178.13;1705934;84;21029;-68
2023/12/25 10:04:50;;;;;;;55.85;28.87;;;;;;;4.53;100.00;98183.95;1706151;83;21464;-66
2023/12/25 10:07:22;;;;;;;65.37;32.30;;;;;;;4.56;100.00;98182.20;1705866;82;21132;-68
2023/12/25 10:09:53;;;;;;;57.30;28.10;;;;;;;4.60;100.00;98184.80;1705568;83;21060;-68
2023/12/25 10:12:22;;;;;;;84.97;39.80;;;;;;;4.64;100.00;98191.47;1705915;83;21060;-69
2023/12/25 10:14:51;;;;;;;122.02;56.48;;;;;;;4.67;100.00;98188.33;1705910;83;21044;-67
2023/12/25 10:17:20;;;;;;;88.27;43.00;;;;;;;4.70;100.00;98196.86;1697878;84;21802;-68
2023/12/25 10:19:50;;;;;;;76.33;36.77;;;;;;;4.76;100.00;98197.89;1706004;83;21510;-69
2023/12/25 10:22:32;;;;;;;38.67;20.25;;;;;;;4.81;100.00;98198.08;1705983;83;21665;-68
2023/12/25 10:25:12;;;;;;;40.92;21.55;;;;;;;4.87;100.00;98195.02;1705872;83;21072;-68
2023/12/25 10:27:42;;;;;;;58.10;26.45;;;;;;;4.90;100.00;98187.81;1706108;84;21076;-68
2023/12/25 10:30:20;;;;;;;74.03;35.30;;;;;;;4.94;100.00;98193.11;1705978;83;21072;-68
2023/12/25 10:32:49;;;;;;;89.58;39.60;;;;;;;4.97;100.00;98196.75;1705975;84;21083;-68
2023/12/25 10:35:19;;;;;;;90.05;41.23;;;;;;;4.99;100.00;98189.23;1706099;83;21351;-65
2023/12/25 10:37:48;;;;;;;49.85;26.42;;;;;;;5.01;100.00;98192.56;1705957;84;21058;-69
2023/12/25 10:40:19;;;;;;;41.73;21.82;;;;;;;5.03;100.00;98198.60;1706095;83;21072;-68
2023/12/25 10:42:51;;;;;;;116.73;46.98;;;;;;;5.03;100.00;98203.50;1698016;84;21041;-68
2023/12/25 10:45:23;;;;;;;65.92;30.60;;;;;;;5.04;100.00;98192.95;1705742;83;21064;-68
2023/12/25 10:48:02;;;;;;;60.73;29.07;;;;;;;5.05;100.00;98190.55;1706068;83;21059;-68
2023/12/25 10:50:38;;;;;;;60.98;28.02;;;;;;;5.08;100.00;98192.83;1705960;83;22045;-68
2023/12/25 10:53:07;;;;;;;22.80;15.32;;;;;;;5.11;100.00;98197.00;1706040;83;21515;-70
2023/12/25 10:55:39;;;;;;;26.00;15.80;;;;;;;5.13;100.00;98188.11;1697813;84;21080;-66
2023/12/25 10:58:11;;;;;;;33.23;17.80;;;;;;;5.15;100.00;98190.61;1705989;83;21032;-67
2023/12/25 11:00:45;;;;;;;74.75;34.20;;;;;;;5.18;100.00;98190.17;1705804;83;21021;-67
2023/12/25 11:03:15;;;;;;;71.02;33.65;;;;;;;5.21;100.00;98191.96;1705990;83;21016;-67
2023/12/25 11:05:44;;;;;;;74.35;35.83;;;;;;;5.25;100.00;98188.28;1712154;82;21105;-68
2023/12/25 11:08:18;;;;;;;62.73;30.20;;;;;;;5.27;100.00;98193.80;1743843;82;21028;-67
2023/12/25 11:10:48;;;;;;;55.38;27.60;;;;;;;5.30;100.00;98193.89;1742288;82;21035;-66
2023/12/25 11:13:16;;;;;;;61.90;28.42;;;;;;;5.31;100.00;98193.67;1743825;81;21098;-67
2023/12/25 11:15:45;;;;;;;40.00;21.27;;;;;;;5.34;100.00;98194.59;1743845;82;21007;-67
2023/12/25 11:18:15;;;;;;;52.83;25.80;;;;;;;5.38;100.00;98204.50;1701975;82;21044;-66
2023/12/25 11:21:05;;;;;;;53.23;25.43;;;;;;;5.44;100.00;98205.50;1743930;81;21012;-67
2023/12/25 11:23:36;;;;;;;44.08;23.77;;;;;;;5.47;100.00;98182.81;1743913;81;20992;-66
2023/12/25 11:26:09;;;;;;;67.82;33.50;;;;;;;5.56;100.00;98199.15;1744098;81;21490;-68
2023/12/25 11:28:40;;;;;;;58.28;29.63;;;;;;;5.61;100.00;98192.53;1744262;82;21071;-67
2023/12/25 11:31:08;;;;;;;47.50;23.60;;;;;;;5.65;100.00;98207.86;1743801;82;21113;-68
2023/12/25 11:33:46;;;;;;;58.58;28.57;;;;;;;5.67;100.00;98206.59;1743988;81;21016;-68
2023/12/25 11:36:16;;;;;;;95.80;42.20;;;;;;;5.70;100.00;98208.87;1743868;81;21495;-68
2023/12/25 11:38:55;;;;;;;83.78;40.80;;;;;;;5.74;100.00;98211.45;1744014;82;21016;-69